sensor_id;sensor_type;location;lat;lon;timestamp;P1;durP1;ratioP1;P2;durP2;ratioP2
44987;SDS011;35735;52.226;21.254;2023-12-04T00:04:52;29.23;;;19.52;;
44987;SDS011;35735;52.226;21.254;2023-12-04T00:09:52;28.65;;;18.77;;
44987;SDS011;35735;52.226;21.254;2023-12-04T00:14:53;26.48;;;17.85;;
44987;SDS011;35735;52.226;21.254;2023-12-04T00:19:54;26.25;;;17.42;;
44987;SDS011;35735;52.226;21.254;2023-12-04T00:24:54;27.87;;;18.40;;
44987;SDS011;35735;52.226;21.254;2023-12-04T00:29:55;28.73;;;18.42;;
44987;SDS011;35735;52.226;21.254;2023-12-04T00:34:56;29.08;;;18.17;;
44987;SDS011;35735;52.226;21.254;2023-12-04T00:39:57;29.40;;;18.25;;
44987;SDS011;35735;52.226;21.254;2023-12-04T00:44:57;25.92;;;16.95;;
44987;SDS011;35735;52.226;21.254;2023-12-04T00:49:58;24.20;;;16.50;;
44987;SDS011;35735;52.226;21.254;2023-12-04T00:54:59;23.80;;;16.17;;
44987;SDS011;35735;52.226;21.254;2023-12-04T00:59:59;23.40;;;16.73;;
44987;SDS011;35735;52.226;21.254;2023-12-04T01:05:00;25.12;;;16.70;;
44987;SDS011;35735;52.226;21.254;2023-12-04T01:10:01;25.80;;;17.10;;
44987;SDS011;35735;52.226;21.254;2023-12-04T01:15:02;23.80;;;16.98;;
44987;SDS011;35735;52.226;21.254;2023-12-04T01:20:03;23.50;;;16.15;;
44987;SDS011;35735;52.226;21.254;2023-12-04T01:25:04;27.35;;;17.05;;
44987;SDS011;35735;52.226;21.254;2023-12-04T01:30:06;26.33;;;16.70;;
44987;SDS011;35735;52.226;21.254;2023-12-04T01:35:07;26.77;;;17.30;;
44987;SDS011;35735;52.226;21.254;2023-12-04T01:40:08;23.98;;;16.37;;
44987;SDS011;35735;52.226;21.254;2023-12-04T01:45:09;26.60;;;18.23;;
44987;SDS011;35735;52.226;21.254;2023-12-04T01:50:10;25.50;;;17.23;;
44987;SDS011;35735;52.226;21.254;2023-12-04T01:55:10;26.48;;;17.77;;
44987;SDS011;35735;52.226;21.254;2023-12-04T02:00:11;24.52;;;16.60;;
44987;SDS011;35735;52.226;21.254;2023-12-04T02:05:13;26.48;;;16.02;;
44987;SDS011;35735;52.226;21.254;2023-12-04T02:10:14;22.55;;;15.38;;
44987;SDS011;35735;52.226;21.254;2023-12-04T02:15:15;21.98;;;15.18;;
44987;SDS011;35735;52.226;21.254;2023-12-04T02:20:16;22.23;;;15.00;;
44987;SDS011;35735;52.226;21.254;2023-12-04T02:25:17;22.48;;;14.70;;
44987;SDS011;35735;52.226;21.254;2023-12-04T02:30:18;20.15;;;14.40;;
44987;SDS011;35735;52.226;21.254;2023-12-04T02:35:22;18.60;;;13.18;;
44987;SDS011;35735;52.226;21.254;2023-12-04T02:40:26;18.60;;;12.88;;
44987;SDS011;35735;52.226;21.254;2023-12-04T02:45:27;17.00;;;12.55;;
44987;SDS011;35735;52.226;21.254;2023-12-04T02:50:27;17.08;;;11.85;;
44987;SDS011;35735;52.226;21.254;2023-12-04T02:55:28;18.27;;;12.32;;
44987;SDS011;35735;52.226;21.254;2023-12-04T03:00:29;20.77;;;12.85;;
44987;SDS011;35735;52.226;21.254;2023-12-04T03:05:29;19.50;;;12.68;;
44987;SDS011;35735;52.226;21.254;2023-12-04T03:10:30;17.30;;;12.43;;
44987;SDS011;35735;52.226;21.254;2023-12-04T03:15:30;16.67;;;11.93;;
44987;SDS011;35735;52.226;21.254;2023-12-04T03:20:32;17.83;;;11.82;;
44987;SDS011;35735;52.226;21.254;2023-12-04T03:25:33;16.10;;;11.40;;
44987;SDS011;35735;52.226;21.254;2023-12-04T03:30:33;15.60;;;11.15;;
44987;SDS011;35735;52.226;21.254;2023-12-04T03:35:34;16.08;;;10.27;;
44987;SDS011;35735;52.226;21.254;2023-12-04T03:40:34;15.38;;;10.45;;
44987;SDS011;35735;52.226;21.254;2023-12-04T03:45:35;15.57;;;10.55;;
44987;SDS011;35735;52.226;21.254;2023-12-04T03:50:36;15.23;;;10.38;;
44987;SDS011;35735;52.226;21.254;2023-12-04T03:55:36;14.80;;;10.68;;
44987;SDS011;35735;52.226;21.254;2023-12-04T04:00:37;15.63;;;11.05;;
44987;SDS011;35735;52.226;21.254;2023-12-04T04:05:37;15.20;;;10.80;;
44987;SDS011;35735;52.226;21.254;2023-12-04T04:10:38;16.33;;;11.12;;
44987;SDS011;35735;52.226;21.254;2023-12-04T04:15:39;17.40;;;11.43;;
44987;SDS011;35735;52.226;21.254;2023-12-04T04:20:39;14.80;;;10.55;;
44987;SDS011;35735;52.226;21.254;2023-12-04T04:25:40;15.65;;;11.45;;
44987;SDS011;35735;52.226;21.254;2023-12-04T04:30:40;17.45;;;11.48;;
44987;SDS011;35735;52.226;21.254;2023-12-04T04:35:41;18.30;;;11.77;;
44987;SDS011;35735;52.226;21.254;2023-12-04T04:40:41;19.73;;;12.75;;
44987;SDS011;35735;52.226;21.254;2023-12-04T04:45:42;17.95;;;12.25;;
44987;SDS011;35735;52.226;21.254;2023-12-04T04:50:43;20.55;;;13.30;;
44987;SDS011;35735;52.226;21.254;2023-12-04T04:55:43;19.05;;;12.93;;
44987;SDS011;35735;52.226;21.254;2023-12-04T05:00:45;18.77;;;12.85;;
44987;SDS011;35735;52.226;21.254;2023-12-04T05:05:46;21.25;;;13.55;;
44987;SDS011;35735;52.226;21.254;2023-12-04T05:10:47;21.30;;;14.00;;
44987;SDS011;35735;52.226;21.254;2023-12-04T05:15:47;20.73;;;14.43;;
44987;SDS011;35735;52.226;21.254;2023-12-04T05:20:48;19.95;;;14.35;;
44987;SDS011;35735;52.226;21.254;2023-12-04T05:25:49;19.65;;;13.32;;
44987;SDS011;35735;52.226;21.254;2023-12-04T05:30:49;18.23;;;12.95;;
44987;SDS011;35735;52.226;21.254;2023-12-04T05:35:50;21.27;;;13.85;;
44987;SDS011;35735;52.226;21.254;2023-12-04T05:40:50;19.80;;;13.93;;
44987;SDS011;35735;52.226;21.254;2023-12-04T05:45:51;22.17;;;14.25;;
44987;SDS011;35735;52.226;21.254;2023-12-04T05:50:52;21.98;;;14.32;;
44987;SDS011;35735;52.226;21.254;2023-12-04T05:55:52;22.13;;;14.63;;
44987;SDS011;35735;52.226;21.254;2023-12-04T06:00:53;23.12;;;15.40;;
44987;SDS011;35735;52.226;21.254;2023-12-04T06:05:53;21.15;;;14.63;;
44987;SDS011;35735;52.226;21.254;2023-12-04T06:10:54;22.67;;;14.87;;
44987;SDS011;35735;52.226;21.254;2023-12-04T06:15:55;21.62;;;15.00;;
44987;SDS011;35735;52.226;21.254;2023-12-04T06:20:55;23.40;;;14.73;;
44987;SDS011;35735;52.226;21.254;2023-12-04T06:25:56;20.10;;;14.25;;
44987;SDS011;35735;52.226;21.254;2023-12-04T06:30:57;21.90;;;14.98;;
44987;SDS011;35735;52.226;21.254;2023-12-04T06:35:58;24.67;;;15.52;;
44987;SDS011;35735;52.226;21.254;2023-12-04T06:40:59;23.65;;;15.50;;
44987;SDS011;35735;52.226;21.254;2023-12-04T06:46:00;24.77;;;15.13;;
44987;SDS011;35735;52.226;21.254;2023-12-04T06:51:01;23.12;;;15.32;;
44987;SDS011;35735;52.226;21.254;2023-12-04T06:56:02;22.23;;;15.40;;
44987;SDS011;35735;52.226;21.254;2023-12-04T07:01:03;23.27;;;15.55;;
44987;SDS011;35735;52.226;21.254;2023-12-04T07:06:04;22.17;;;15.82;;
44987;SDS011;35735;52.226;21.254;2023-12-04T07:11:05;24.65;;;15.75;;
44987;SDS011;35735;52.226;21.254;2023-12-04T07:16:06;24.30;;;16.15;;
44987;SDS011;35735;52.226;21.254;2023-12-04T07:21:07;23.65;;;15.63;;
44987;SDS011;35735;52.226;21.254;2023-12-04T07:26:08;22.90;;;15.93;;
44987;SDS011;35735;52.226;21.254;2023-12-04T07:31:09;23.90;;;15.52;;
44987;SDS011;35735;52.226;21.254;2023-12-04T07:36:09;22.48;;;14.90;;
44987;SDS011;35735;52.226;21.254;2023-12-04T07:41:10;25.15;;;16.45;;
44987;SDS011;35735;52.226;21.254;2023-12-04T07:46:11;25.27;;;16.20;;
44987;SDS011;35735;52.226;21.254;2023-12-04T07:51:11;25.75;;;16.48;;
44987;SDS011;35735;52.226;21.254;2023-12-04T07:56:12;27.90;;;17.50;;
44987;SDS011;35735;52.226;21.254;2023-12-04T08:01:13;28.70;;;17.37;;
44987;SDS011;35735;52.226;21.254;2023-12-04T08:06:14;25.20;;;17.17;;
44987;SDS011;35735;52.226;21.254;2023-12-04T08:11:15;28.62;;;18.90;;
44987;SDS011;35735;52.226;21.254;2023-12-04T08:16:15;29.23;;;18.60;;
44987;SDS011;35735;52.226;21.254;2023-12-04T08:21:16;28.00;;;17.77;;
44987;SDS011;35735;52.226;21.254;2023-12-04T08:26:23;26.62;;;17.67;;
44987;SDS011;35735;52.226;21.254;2023-12-04T08:31:25;29.05;;;18.27;;
44987;SDS011;35735;52.226;21.254;2023-12-04T08:36:26;28.25;;;17.98;;
44987;SDS011;35735;52.226;21.254;2023-12-04T08:41:26;30.92;;;18.83;;
44987;SDS011;35735;52.226;21.254;2023-12-04T08:46:27;30.05;;;19.05;;
44987;SDS011;35735;52.226;21.254;2023-12-04T08:51:27;30.83;;;18.95;;
44987;SDS011;35735;52.226;21.254;2023-12-04T08:56:28;28.62;;;17.92;;
44987;SDS011;35735;52.226;21.254;2023-12-04T09:01:28;27.42;;;17.40;;
44987;SDS011;35735;52.226;21.254;2023-12-04T09:06:29;27.87;;;16.62;;
44987;SDS011;35735;52.226;21.254;2023-12-04T09:11:29;28.23;;;17.80;;
44987;SDS011;35735;52.226;21.254;2023-12-04T09:16:30;28.17;;;17.62;;
44987;SDS011;35735;52.226;21.254;2023-12-04T09:21:31;28.55;;;17.55;;
44987;SDS011;35735;52.226;21.254;2023-12-04T09:26:31;28.27;;;17.25;;
44987;SDS011;35735;52.226;21.254;2023-12-04T09:31:32;28.52;;;17.30;;
44987;SDS011;35735;52.226;21.254;2023-12-04T09:36:33;29.30;;;17.77;;
44987;SDS011;35735;52.226;21.254;2023-12-04T09:41:34;28.80;;;17.80;;
44987;SDS011;35735;52.226;21.254;2023-12-04T09:46:35;28.17;;;18.02;;
44987;SDS011;35735;52.226;21.254;2023-12-04T09:51:36;28.02;;;18.10;;
44987;SDS011;35735;52.226;21.254;2023-12-04T09:56:38;28.90;;;18.27;;
44987;SDS011;35735;52.226;21.254;2023-12-04T10:01:39;26.95;;;16.77;;
44987;SDS011;35735;52.226;21.254;2023-12-04T10:06:41;26.85;;;16.87;;
44987;SDS011;35735;52.226;21.254;2023-12-04T10:11:44;29.50;;;18.15;;
44987;SDS011;35735;52.226;21.254;2023-12-04T10:16:46;27.75;;;17.55;;
44987;SDS011;35735;52.226;21.254;2023-12-04T10:21:48;27.65;;;17.15;;
44987;SDS011;35735;52.226;21.254;2023-12-04T10:26:50;29.95;;;17.73;;
44987;SDS011;35735;52.226;21.254;2023-12-04T10:31:51;30.00;;;18.90;;
44987;SDS011;35735;52.226;21.254;2023-12-04T10:36:52;29.45;;;17.75;;
44987;SDS011;35735;52.226;21.254;2023-12-04T10:41:59;29.37;;;17.98;;
44987;SDS011;35735;52.226;21.254;2023-12-04T10:47:02;26.50;;;16.50;;
44987;SDS011;35735;52.226;21.254;2023-12-04T10:52:04;26.20;;;16.35;;
44987;SDS011;35735;52.226;21.254;2023-12-04T10:57:06;27.17;;;16.95;;
44987;SDS011;35735;52.226;21.254;2023-12-04T11:02:06;27.75;;;17.55;;
44987;SDS011;35735;52.226;21.254;2023-12-04T11:07:19;28.65;;;17.45;;
44987;SDS011;35735;52.226;21.254;2023-12-04T11:12:21;29.63;;;18.60;;
44987;SDS011;35735;52.226;21.254;2023-12-04T11:17:25;28.87;;;17.87;;
44987;SDS011;35735;52.226;21.254;2023-12-04T11:22:34;32.78;;;19.42;;
44987;SDS011;35735;52.226;21.254;2023-12-04T11:27:36;31.05;;;19.02;;
44987;SDS011;35735;52.226;21.254;2023-12-04T11:32:46;32.17;;;18.62;;
44987;SDS011;35735;52.226;21.254;2023-12-04T11:37:49;33.10;;;18.70;;
44987;SDS011;35735;52.226;21.254;2023-12-04T11:42:50;38.65;;;23.15;;
44987;SDS011;35735;52.226;21.254;2023-12-04T11:47:56;49.92;;;26.85;;
44987;SDS011;35735;52.226;21.254;2023-12-04T11:52:57;30.67;;;19.50;;
44987;SDS011;35735;52.226;21.254;2023-12-04T11:57:58;29.37;;;18.67;;
44987;SDS011;35735;52.226;21.254;2023-12-04T12:03:03;31.15;;;19.45;;
44987;SDS011;35735;52.226;21.254;2023-12-04T12:08:06;32.22;;;19.37;;
44987;SDS011;35735;52.226;21.254;2023-12-04T12:13:10;32.78;;;19.77;;
44987;SDS011;35735;52.226;21.254;2023-12-04T12:18:12;29.92;;;19.17;;
44987;SDS011;35735;52.226;21.254;2023-12-04T12:23:12;28.00;;;17.08;;
44987;SDS011;35735;52.226;21.254;2023-12-04T12:28:13;29.12;;;18.10;;
44987;SDS011;35735;52.226;21.254;2023-12-04T12:33:15;30.90;;;18.62;;
44987;SDS011;35735;52.226;21.254;2023-12-04T12:38:16;31.30;;;18.75;;
44987;SDS011;35735;52.226;21.254;2023-12-04T12:43:19;30.75;;;19.08;;
44987;SDS011;35735;52.226;21.254;2023-12-04T12:48:21;30.67;;;18.92;;
44987;SDS011;35735;52.226;21.254;2023-12-04T12:53:21;34.08;;;19.12;;
44987;SDS011;35735;52.226;21.254;2023-12-04T12:58:23;29.48;;;16.87;;
44987;SDS011;35735;52.226;21.254;2023-12-04T13:03:25;29.60;;;17.23;;
44987;SDS011;35735;52.226;21.254;2023-12-04T13:08:25;31.48;;;17.95;;
44987;SDS011;35735;52.226;21.254;2023-12-04T13:13:26;29.95;;;17.67;;
44987;SDS011;35735;52.226;21.254;2023-12-04T13:18:26;29.02;;;17.67;;
44987;SDS011;35735;52.226;21.254;2023-12-04T13:23:27;27.73;;;17.10;;
44987;SDS011;35735;52.226;21.254;2023-12-04T13:28:28;29.95;;;17.60;;
44987;SDS011;35735;52.226;21.254;2023-12-04T13:33:28;31.10;;;17.08;;
44987;SDS011;35735;52.226;21.254;2023-12-04T13:38:29;30.65;;;18.33;;
44987;SDS011;35735;52.226;21.254;2023-12-04T13:43:30;26.55;;;16.85;;
44987;SDS011;35735;52.226;21.254;2023-12-04T13:48:30;28.12;;;17.70;;
44987;SDS011;35735;52.226;21.254;2023-12-04T13:53:31;25.70;;;16.40;;
44987;SDS011;35735;52.226;21.254;2023-12-04T13:58:31;26.17;;;16.92;;
44987;SDS011;35735;52.226;21.254;2023-12-04T14:03:32;26.00;;;16.20;;
44987;SDS011;35735;52.226;21.254;2023-12-04T14:08:33;24.83;;;15.85;;
44987;SDS011;35735;52.226;21.254;2023-12-04T14:13:33;26.50;;;15.75;;
44987;SDS011;35735;52.226;21.254;2023-12-04T14:18:35;24.52;;;15.27;;
44987;SDS011;35735;52.226;21.254;2023-12-04T14:23:36;27.87;;;15.68;;
44987;SDS011;35735;52.226;21.254;2023-12-04T14:28:36;26.40;;;17.23;;
44987;SDS011;35735;52.226;21.254;2023-12-04T14:33:37;29.60;;;16.73;;
44987;SDS011;35735;52.226;21.254;2023-12-04T14:38:38;28.80;;;16.67;;
44987;SDS011;35735;52.226;21.254;2023-12-04T14:43:41;28.58;;;17.10;;
44987;SDS011;35735;52.226;21.254;2023-12-04T14:48:42;30.90;;;17.37;;
44987;SDS011;35735;52.226;21.254;2023-12-04T14:53:43;28.65;;;17.17;;
44987;SDS011;35735;52.226;21.254;2023-12-04T14:58:43;26.55;;;16.42;;
44987;SDS011;35735;52.226;21.254;2023-12-04T15:03:44;28.33;;;17.87;;
44987;SDS011;35735;52.226;21.254;2023-12-04T15:08:44;29.37;;;17.75;;
44987;SDS011;35735;52.226;21.254;2023-12-04T15:13:45;27.87;;;16.85;;
44987;SDS011;35735;52.226;21.254;2023-12-04T15:18:45;31.50;;;18.30;;
44987;SDS011;35735;52.226;21.254;2023-12-04T15:23:46;29.87;;;17.55;;
44987;SDS011;35735;52.226;21.254;2023-12-04T15:28:47;28.58;;;18.55;;
44987;SDS011;35735;52.226;21.254;2023-12-04T15:33:47;27.60;;;17.83;;
44987;SDS011;35735;52.226;21.254;2023-12-04T15:38:48;33.63;;;20.23;;
44987;SDS011;35735;52.226;21.254;2023-12-04T15:43:48;33.92;;;20.73;;
44987;SDS011;35735;52.226;21.254;2023-12-04T15:48:49;35.53;;;22.67;;
44987;SDS011;35735;52.226;21.254;2023-12-04T15:53:49;37.17;;;22.33;;
44987;SDS011;35735;52.226;21.254;2023-12-04T15:58:50;36.83;;;22.80;;
44987;SDS011;35735;52.226;21.254;2023-12-04T16:03:51;36.42;;;22.67;;
44987;SDS011;35735;52.226;21.254;2023-12-04T16:08:51;40.25;;;23.42;;
44987;SDS011;35735;52.226;21.254;2023-12-04T16:13:52;37.92;;;22.98;;
44987;SDS011;35735;52.226;21.254;2023-12-04T16:18:53;38.25;;;23.35;;
44987;SDS011;35735;52.226;21.254;2023-12-04T16:23:53;37.88;;;23.05;;
44987;SDS011;35735;52.226;21.254;2023-12-04T16:28:54;42.90;;;24.15;;
44987;SDS011;35735;52.226;21.254;2023-12-04T16:33:55;37.17;;;23.17;;
44987;SDS011;35735;52.226;21.254;2023-12-04T16:38:56;37.92;;;22.85;;
44987;SDS011;35735;52.226;21.254;2023-12-04T16:43:56;36.72;;;23.17;;
44987;SDS011;35735;52.226;21.254;2023-12-04T16:48:57;36.35;;;22.20;;
44987;SDS011;35735;52.226;21.254;2023-12-04T16:53:57;39.55;;;23.42;;
44987;SDS011;35735;52.226;21.254;2023-12-04T16:58:58;39.83;;;23.75;;
44987;SDS011;35735;52.226;21.254;2023-12-04T17:03:59;44.78;;;25.77;;
44987;SDS011;35735;52.226;21.254;2023-12-04T17:08:59;43.78;;;25.60;;
44987;SDS011;35735;52.226;21.254;2023-12-04T17:14:00;40.78;;;24.65;;
44987;SDS011;35735;52.226;21.254;2023-12-04T17:19:01;44.33;;;26.67;;
44987;SDS011;35735;52.226;21.254;2023-12-04T17:24:01;46.97;;;26.42;;
44987;SDS011;35735;52.226;21.254;2023-12-04T17:29:02;42.25;;;25.70;;
44987;SDS011;35735;52.226;21.254;2023-12-04T17:34:03;46.40;;;26.15;;
44987;SDS011;35735;52.226;21.254;2023-12-04T17:39:03;45.28;;;26.40;;
44987;SDS011;35735;52.226;21.254;2023-12-04T17:44:04;47.25;;;27.08;;
44987;SDS011;35735;52.226;21.254;2023-12-04T17:49:05;45.25;;;27.92;;
44987;SDS011;35735;52.226;21.254;2023-12-04T17:54:05;48.78;;;28.20;;
44987;SDS011;35735;52.226;21.254;2023-12-04T17:59:06;51.37;;;28.67;;
44987;SDS011;35735;52.226;21.254;2023-12-04T18:04:06;51.25;;;29.83;;
44987;SDS011;35735;52.226;21.254;2023-12-04T18:09:07;56.80;;;30.37;;
44987;SDS011;35735;52.226;21.254;2023-12-04T18:14:08;55.42;;;31.40;;
44987;SDS011;35735;52.226;21.254;2023-12-04T18:19:08;51.17;;;30.37;;
44987;SDS011;35735;52.226;21.254;2023-12-04T18:24:09;58.35;;;31.98;;
44987;SDS011;35735;52.226;21.254;2023-12-04T18:29:09;58.87;;;33.13;;
44987;SDS011;35735;52.226;21.254;2023-12-04T18:34:10;58.47;;;32.45;;
44987;SDS011;35735;52.226;21.254;2023-12-04T18:39:12;57.62;;;32.35;;
44987;SDS011;35735;52.226;21.254;2023-12-04T18:44:12;58.15;;;33.53;;
44987;SDS011;35735;52.226;21.254;2023-12-04T18:49:13;60.00;;;33.70;;
44987;SDS011;35735;52.226;21.254;2023-12-04T18:54:14;61.08;;;33.45;;
44987;SDS011;35735;52.226;21.254;2023-12-04T18:59:15;59.95;;;33.97;;
44987;SDS011;35735;52.226;21.254;2023-12-04T19:04:16;63.95;;;34.50;;
44987;SDS011;35735;52.226;21.254;2023-12-04T19:09:16;65.03;;;34.72;;
44987;SDS011;35735;52.226;21.254;2023-12-04T19:14:17;61.05;;;33.42;;
44987;SDS011;35735;52.226;21.254;2023-12-04T19:19:17;62.13;;;33.30;;
44987;SDS011;35735;52.226;21.254;2023-12-04T19:24:18;61.67;;;33.85;;
44987;SDS011;35735;52.226;21.254;2023-12-04T19:29:19;66.80;;;35.75;;
44987;SDS011;35735;52.226;21.254;2023-12-04T19:34:19;67.55;;;36.55;;
44987;SDS011;35735;52.226;21.254;2023-12-04T19:39:20;67.12;;;36.03;;
44987;SDS011;35735;52.226;21.254;2023-12-04T19:44:20;67.80;;;36.50;;
44987;SDS011;35735;52.226;21.254;2023-12-04T19:49:21;61.97;;;36.50;;
44987;SDS011;35735;52.226;21.254;2023-12-04T19:54:21;65.00;;;37.03;;
44987;SDS011;35735;52.226;21.254;2023-12-04T19:59:22;71.20;;;38.63;;
44987;SDS011;35735;52.226;21.254;2023-12-04T20:04:23;76.85;;;40.55;;
44987;SDS011;35735;52.226;21.254;2023-12-04T20:09:23;84.30;;;42.72;;
44987;SDS011;35735;52.226;21.254;2023-12-04T20:14:24;84.00;;;44.03;;
44987;SDS011;35735;52.226;21.254;2023-12-04T20:19:24;91.07;;;43.45;;
44987;SDS011;35735;52.226;21.254;2023-12-04T20:24:25;92.72;;;44.30;;
44987;SDS011;35735;52.226;21.254;2023-12-04T20:29:26;94.30;;;44.55;;
44987;SDS011;35735;52.226;21.254;2023-12-04T20:34:26;105.03;;;46.85;;
44987;SDS011;35735;52.226;21.254;2023-12-04T20:39:27;100.10;;;47.47;;
44987;SDS011;35735;52.226;21.254;2023-12-04T20:44:28;97.68;;;46.60;;
44987;SDS011;35735;52.226;21.254;2023-12-04T20:49:28;94.35;;;45.33;;
44987;SDS011;35735;52.226;21.254;2023-12-04T20:54:29;99.75;;;46.67;;
44987;SDS011;35735;52.226;21.254;2023-12-04T20:59:29;102.55;;;46.90;;
44987;SDS011;35735;52.226;21.254;2023-12-04T21:04:30;101.87;;;48.63;;
44987;SDS011;35735;52.226;21.254;2023-12-04T21:09:31;104.63;;;48.70;;
44987;SDS011;35735;52.226;21.254;2023-12-04T21:14:31;103.18;;;47.80;;
44987;SDS011;35735;52.226;21.254;2023-12-04T21:19:32;110.93;;;47.05;;
44987;SDS011;35735;52.226;21.254;2023-12-04T21:24:33;106.28;;;48.83;;
44987;SDS011;35735;52.226;21.254;2023-12-04T21:29:33;111.65;;;52.15;;
44987;SDS011;35735;52.226;21.254;2023-12-04T21:34:34;111.28;;;53.75;;
44987;SDS011;35735;52.226;21.254;2023-12-04T21:39:34;114.07;;;56.63;;
44987;SDS011;35735;52.226;21.254;2023-12-04T21:44:35;99.15;;;48.50;;
44987;SDS011;35735;52.226;21.254;2023-12-04T21:49:36;91.15;;;44.08;;
44987;SDS011;35735;52.226;21.254;2023-12-04T21:54:37;89.18;;;42.28;;
44987;SDS011;35735;52.226;21.254;2023-12-04T21:59:37;88.78;;;42.97;;
44987;SDS011;35735;52.226;21.254;2023-12-04T22:04:38;89.53;;;40.85;;
44987;SDS011;35735;52.226;21.254;2023-12-04T22:09:38;78.85;;;39.65;;
44987;SDS011;35735;52.226;21.254;2023-12-04T22:14:39;83.70;;;39.53;;
44987;SDS011;35735;52.226;21.254;2023-12-04T22:19:40;85.20;;;39.72;;
44987;SDS011;35735;52.226;21.254;2023-12-04T22:24:40;77.90;;;36.88;;
44987;SDS011;35735;52.226;21.254;2023-12-04T22:29:41;77.62;;;38.42;;
44987;SDS011;35735;52.226;21.254;2023-12-04T22:34:41;77.50;;;36.97;;
44987;SDS011;35735;52.226;21.254;2023-12-04T22:39:42;74.20;;;37.55;;
44987;SDS011;35735;52.226;21.254;2023-12-04T22:44:42;77.62;;;37.53;;
44987;SDS011;35735;52.226;21.254;2023-12-04T22:49:43;76.80;;;37.65;;
44987;SDS011;35735;52.226;21.254;2023-12-04T22:54:44;78.55;;;41.17;;
44987;SDS011;35735;52.226;21.254;2023-12-04T22:59:44;77.70;;;38.65;;
44987;SDS011;35735;52.226;21.254;2023-12-04T23:04:45;79.68;;;39.58;;
44987;SDS011;35735;52.226;21.254;2023-12-04T23:09:45;91.63;;;44.03;;
44987;SDS011;35735;52.226;21.254;2023-12-04T23:14:46;88.78;;;44.97;;
44987;SDS011;35735;52.226;21.254;2023-12-04T23:19:47;89.87;;;44.42;;
44987;SDS011;35735;52.226;21.254;2023-12-04T23:24:47;89.15;;;43.95;;
44987;SDS011;35735;52.226;21.254;2023-12-04T23:29:48;84.87;;;41.30;;
44987;SDS011;35735;52.226;21.254;2023-12-04T23:34:48;86.32;;;41.83;;
44987;SDS011;35735;52.226;21.254;2023-12-04T23:39:49;88.12;;;41.70;;
44987;SDS011;35735;52.226;21.254;2023-12-04T23:44:49;83.55;;;40.25;;
44987;SDS011;35735;52.226;21.254;2023-12-04T23:49:50;83.55;;;40.20;;
44987;SDS011;35735;52.226;21.254;2023-12-04T23:54:51;81.05;;;40.83;;
44987;SDS011;35735;52.226;21.254;2023-12-04T23:59:51;86.78;;;40.78;;
